sensor_id;sensor_type;location;lat;lon;timestamp;temperature;humidity
37530;DHT22;23374;52.758;6.872;2023-08-17T00:01:19;17.90;1.00
37530;DHT22;23374;52.758;6.872;2023-08-17T00:03:39;18.00;99.90
37530;DHT22;23374;52.758;6.872;2023-08-17T00:06:00;18.00;99.90
37530;DHT22;23374;52.758;6.872;2023-08-17T00:08:20;18.00;99.90
37530;DHT22;23374;52.758;6.872;2023-08-17T00:10:40;18.00;99.90
37530;DHT22;23374;52.758;6.872;2023-08-17T00:13:01;18.00;99.90
37530;DHT22;23374;52.758;6.872;2023-08-17T00:15:22;18.00;99.90
37530;DHT22;23374;52.758;6.872;2023-08-17T00:17:43;17.90;99.90
37530;DHT22;23374;52.758;6.872;2023-08-17T00:20:05;17.90;99.90
37530;DHT22;23374;52.758;6.872;2023-08-17T00:22:25;17.90;99.90
37530;DHT22;23374;52.758;6.872;2023-08-17T00:24:45;17.80;99.90
37530;DHT22;23374;52.758;6.872;2023-08-17T00:27:06;17.80;99.90
37530;DHT22;23374;52.758;6.872;2023-08-17T00:29:27;17.80;99.90
37530;DHT22;23374;52.758;6.872;2023-08-17T00:31:47;17.80;99.90
37530;DHT22;23374;52.758;6.872;2023-08-17T00:34:08;17.80;99.90
37530;DHT22;23374;52.758;6.872;2023-08-17T00:36:28;17.70;1.00
37530;DHT22;23374;52.758;6.872;2023-08-17T00:38:48;17.70;99.90
37530;DHT22;23374;52.758;6.872;2023-08-17T00:41:08;17.60;1.00
37530;DHT22;23374;52.758;6.872;2023-08-17T00:43:29;17.60;1.00
37530;DHT22;23374;52.758;6.872;2023-08-17T00:45:49;17.60;99.90
37530;DHT22;23374;52.758;6.872;2023-08-17T00:48:10;17.60;1.00
37530;DHT22;23374;52.758;6.872;2023-08-17T00:50:31;17.60;1.00
37530;DHT22;23374;52.758;6.872;2023-08-17T00:52:53;17.60;1.00
37530;DHT22;23374;52.758;6.872;2023-08-17T00:55:13;17.70;1.00
37530;DHT22;23374;52.758;6.872;2023-08-17T00:57:35;17.70;99.90
37530;DHT22;23374;52.758;6.872;2023-08-17T00:59:56;17.70;99.90
37530;DHT22;23374;52.758;6.872;2023-08-17T01:02:17;17.70;99.90
37530;DHT22;23374;52.758;6.872;2023-08-17T01:04:38;17.70;99.90
37530;DHT22;23374;52.758;6.872;2023-08-17T01:06:58;17.70;1.00
37530;DHT22;23374;52.758;6.872;2023-08-17T01:09:18;17.70;1.00
37530;DHT22;23374;52.758;6.872;2023-08-17T01:12:31;17.60;99.90
37530;DHT22;23374;52.758;6.872;2023-08-17T01:15:11;17.60;1.00
37530;DHT22;23374;52.758;6.872;2023-08-17T01:20:27;17.60;1.00
37530;DHT22;23374;52.758;6.872;2023-08-17T01:22:52;17.60;99.90
37530;DHT22;23374;52.758;6.872;2023-08-17T01:25:13;17.60;1.00
37530;DHT22;23374;52.758;6.872;2023-08-17T01:27:41;17.60;1.00
37530;DHT22;23374;52.758;6.872;2023-08-17T01:30:01;17.60;1.00
37530;DHT22;23374;52.758;6.872;2023-08-17T01:32:35;17.50;1.00
37530;DHT22;23374;52.758;6.872;2023-08-17T01:35:21;17.60;1.00
37530;DHT22;23374;52.758;6.872;2023-08-17T01:37:50;17.60;1.00
37530;DHT22;23374;52.758;6.872;2023-08-17T01:40:12;17.60;1.00
37530;DHT22;23374;52.758;6.872;2023-08-17T01:42:33;17.60;1.00
37530;DHT22;23374;52.758;6.872;2023-08-17T01:44:54;17.50;1.00
37530;DHT22;23374;52.758;6.872;2023-08-17T01:47:15;17.50;1.00
37530;DHT22;23374;52.758;6.872;2023-08-17T01:49:35;17.50;1.00
37530;DHT22;23374;52.758;6.872;2023-08-17T01:51:56;17.50;1.00
37530;DHT22;23374;52.758;6.872;2023-08-17T01:54:16;17.50;1.00
37530;DHT22;23374;52.758;6.872;2023-08-17T01:56:37;17.50;1.00
37530;DHT22;23374;52.758;6.872;2023-08-17T01:58:57;17.50;1.00
37530;DHT22;23374;52.758;6.872;2023-08-17T02:01:17;17.50;1.00
37530;DHT22;23374;52.758;6.872;2023-08-17T02:03:38;17.50;1.00
37530;DHT22;23374;52.758;6.872;2023-08-17T02:05:59;17.50;1.00
37530;DHT22;23374;52.758;6.872;2023-08-17T02:08:20;17.50;99.90
37530;DHT22;23374;52.758;6.872;2023-08-17T02:10:40;17.50;99.90
37530;DHT22;23374;52.758;6.872;2023-08-17T02:13:00;17.60;99.90
37530;DHT22;23374;52.758;6.872;2023-08-17T02:15:20;17.50;1.00
37530;DHT22;23374;52.758;6.872;2023-08-17T02:17:40;17.50;99.90
37530;DHT22;23374;52.758;6.872;2023-08-17T02:20:01;17.50;99.90
37530;DHT22;23374;52.758;6.872;2023-08-17T02:22:21;17.50;99.90
37530;DHT22;23374;52.758;6.872;2023-08-17T02:24:41;17.50;1.00
37530;DHT22;23374;52.758;6.872;2023-08-17T02:27:02;17.50;1.00
37530;DHT22;23374;52.758;6.872;2023-08-17T02:29:23;17.40;1.00
37530;DHT22;23374;52.758;6.872;2023-08-17T02:31:43;17.40;1.00
37530;DHT22;23374;52.758;6.872;2023-08-17T02:34:04;17.40;1.00
37530;DHT22;23374;52.758;6.872;2023-08-17T02:36:25;17.40;1.00
37530;DHT22;23374;52.758;6.872;2023-08-17T02:38:46;17.40;1.00
37530;DHT22;23374;52.758;6.872;2023-08-17T02:41:06;17.30;1.00
37530;DHT22;23374;52.758;6.872;2023-08-17T02:43:26;17.30;1.00
37530;DHT22;23374;52.758;6.872;2023-08-17T02:45:46;17.30;1.00
37530;DHT22;23374;52.758;6.872;2023-08-17T02:48:06;17.20;1.00
37530;DHT22;23374;52.758;6.872;2023-08-17T02:50:27;17.30;1.00
37530;DHT22;23374;52.758;6.872;2023-08-17T02:52:47;17.20;1.00
37530;DHT22;23374;52.758;6.872;2023-08-17T02:55:08;17.20;1.00
37530;DHT22;23374;52.758;6.872;2023-08-17T02:57:29;17.20;1.00
37530;DHT22;23374;52.758;6.872;2023-08-17T02:59:49;17.20;1.00
37530;DHT22;23374;52.758;6.872;2023-08-17T03:02:09;17.20;1.00
37530;DHT22;23374;52.758;6.872;2023-08-17T03:04:29;17.10;1.00
37530;DHT22;23374;52.758;6.872;2023-08-17T03:06:49;17.10;99.90
37530;DHT22;23374;52.758;6.872;2023-08-17T03:09:09;17.20;1.00
37530;DHT22;23374;52.758;6.872;2023-08-17T03:11:31;17.10;1.00
37530;DHT22;23374;52.758;6.872;2023-08-17T03:13:51;17.20;1.00
37530;DHT22;23374;52.758;6.872;2023-08-17T03:16:15;17.20;1.00
37530;DHT22;23374;52.758;6.872;2023-08-17T03:18:35;17.10;1.00
37530;DHT22;23374;52.758;6.872;2023-08-17T03:20:56;17.10;1.00
37530;DHT22;23374;52.758;6.872;2023-08-17T03:23:16;17.10;1.00
37530;DHT22;23374;52.758;6.872;2023-08-17T03:25:36;17.20;65.30
37530;DHT22;23374;52.758;6.872;2023-08-17T03:27:57;17.10;24.30
37530;DHT22;23374;52.758;6.872;2023-08-17T03:30:17;17.20;44.50
37530;DHT22;23374;52.758;6.872;2023-08-17T03:32:38;17.10;1.00
37530;DHT22;23374;52.758;6.872;2023-08-17T03:34:58;17.20;99.90
37530;DHT22;23374;52.758;6.872;2023-08-17T03:37:18;17.10;72.00
37530;DHT22;23374;52.758;6.872;2023-08-17T03:39:38;17.10;99.90
37530;DHT22;23374;52.758;6.872;2023-08-17T03:41:58;17.10;99.90
37530;DHT22;23374;52.758;6.872;2023-08-17T03:44:19;17.10;1.00
37530;DHT22;23374;52.758;6.872;2023-08-17T03:46:40;17.10;99.90
37530;DHT22;23374;52.758;6.872;2023-08-17T03:49:00;17.10;99.90
37530;DHT22;23374;52.758;6.872;2023-08-17T03:51:20;17.10;1.00
37530;DHT22;23374;52.758;6.872;2023-08-17T03:53:41;17.20;1.00
37530;DHT22;23374;52.758;6.872;2023-08-17T03:56:01;17.10;99.90
37530;DHT22;23374;52.758;6.872;2023-08-17T03:58:21;17.10;82.30
37530;DHT22;23374;52.758;6.872;2023-08-17T04:00:42;17.10;99.90
37530;DHT22;23374;52.758;6.872;2023-08-17T04:03:03;17.10;42.40
37530;DHT22;23374;52.758;6.872;2023-08-17T04:05:24;17.10;46.00
37530;DHT22;23374;52.758;6.872;2023-08-17T04:07:44;17.10;28.40
37530;DHT22;23374;52.758;6.872;2023-08-17T04:10:08;17.10;99.90
37530;DHT22;23374;52.758;6.872;2023-08-17T04:12:29;17.10;99.90
37530;DHT22;23374;52.758;6.872;2023-08-17T04:14:49;17.10;99.90
37530;DHT22;23374;52.758;6.872;2023-08-17T04:17:09;17.20;99.90
37530;DHT22;23374;52.758;6.872;2023-08-17T04:19:29;17.10;99.90
37530;DHT22;23374;52.758;6.872;2023-08-17T04:21:50;17.20;99.90
37530;DHT22;23374;52.758;6.872;2023-08-17T04:24:10;17.20;99.90
37530;DHT22;23374;52.758;6.872;2023-08-17T04:26:30;17.10;99.90
37530;DHT22;23374;52.758;6.872;2023-08-17T04:28:51;17.10;99.90
37530;DHT22;23374;52.758;6.872;2023-08-17T04:31:11;17.10;99.90
37530;DHT22;23374;52.758;6.872;2023-08-17T04:33:32;17.10;99.90
37530;DHT22;23374;52.758;6.872;2023-08-17T04:35:52;17.10;99.90
37530;DHT22;23374;52.758;6.872;2023-08-17T04:38:12;17.10;99.90
37530;DHT22;23374;52.758;6.872;2023-08-17T04:40:33;17.10;99.90
37530;DHT22;23374;52.758;6.872;2023-08-17T04:42:54;17.20;99.90
37530;DHT22;23374;52.758;6.872;2023-08-17T04:45:14;17.20;99.90
37530;DHT22;23374;52.758;6.872;2023-08-17T04:47:35;17.20;99.90
37530;DHT22;23374;52.758;6.872;2023-08-17T04:49:55;17.20;1.00
37530;DHT22;23374;52.758;6.872;2023-08-17T04:52:15;17.20;99.90
37530;DHT22;23374;52.758;6.872;2023-08-17T04:54:36;17.20;99.90
37530;DHT22;23374;52.758;6.872;2023-08-17T04:56:56;17.20;99.90
37530;DHT22;23374;52.758;6.872;2023-08-17T04:59:16;17.20;99.90
37530;DHT22;23374;52.758;6.872;2023-08-17T05:01:37;17.30;99.90
37530;DHT22;23374;52.758;6.872;2023-08-17T05:03:57;17.20;99.90
37530;DHT22;23374;52.758;6.872;2023-08-17T05:06:18;17.20;99.90
37530;DHT22;23374;52.758;6.872;2023-08-17T05:08:39;17.20;99.90
37530;DHT22;23374;52.758;6.872;2023-08-17T05:10:59;17.20;99.90
37530;DHT22;23374;52.758;6.872;2023-08-17T05:13:19;17.20;99.90
37530;DHT22;23374;52.758;6.872;2023-08-17T05:15:40;17.20;99.90
37530;DHT22;23374;52.758;6.872;2023-08-17T05:18:00;17.20;99.90
37530;DHT22;23374;52.758;6.872;2023-08-17T05:20:20;17.20;99.90
37530;DHT22;23374;52.758;6.872;2023-08-17T05:22:41;17.30;99.90
37530;DHT22;23374;52.758;6.872;2023-08-17T05:25:01;17.30;99.90
37530;DHT22;23374;52.758;6.872;2023-08-17T05:27:22;17.20;99.90
37530;DHT22;23374;52.758;6.872;2023-08-17T05:29:42;17.30;99.90
37530;DHT22;23374;52.758;6.872;2023-08-17T05:32:03;17.30;99.90
37530;DHT22;23374;52.758;6.872;2023-08-17T05:34:25;17.30;99.90
37530;DHT22;23374;52.758;6.872;2023-08-17T05:36:45;17.30;99.90
37530;DHT22;23374;52.758;6.872;2023-08-17T05:39:06;17.30;99.90
37530;DHT22;23374;52.758;6.872;2023-08-17T05:41:26;17.30;99.90
37530;DHT22;23374;52.758;6.872;2023-08-17T05:43:48;17.30;99.90
37530;DHT22;23374;52.758;6.872;2023-08-17T05:46:08;17.30;99.90
37530;DHT22;23374;52.758;6.872;2023-08-17T05:48:29;17.30;99.90
37530;DHT22;23374;52.758;6.872;2023-08-17T05:50:49;17.30;99.90
37530;DHT22;23374;52.758;6.872;2023-08-17T05:53:09;17.30;99.90
37530;DHT22;23374;52.758;6.872;2023-08-17T05:55:30;17.30;99.90
37530;DHT22;23374;52.758;6.872;2023-08-17T05:57:50;17.30;99.90
37530;DHT22;23374;52.758;6.872;2023-08-17T06:00:14;17.30;99.90
37530;DHT22;23374;52.758;6.872;2023-08-17T06:02:35;17.30;1.00
37530;DHT22;23374;52.758;6.872;2023-08-17T06:04:55;17.20;1.00
37530;DHT22;23374;52.758;6.872;2023-08-17T06:07:16;17.30;1.00
37530;DHT22;23374;52.758;6.872;2023-08-17T06:09:36;17.30;99.90
37530;DHT22;23374;52.758;6.872;2023-08-17T06:11:57;17.30;1.00
37530;DHT22;23374;52.758;6.872;2023-08-17T06:14:17;17.30;99.90
37530;DHT22;23374;52.758;6.872;2023-08-17T06:16:37;17.40;99.90
37530;DHT22;23374;52.758;6.872;2023-08-17T06:18:59;17.40;99.90
37530;DHT22;23374;52.758;6.872;2023-08-17T06:21:19;17.40;99.90
37530;DHT22;23374;52.758;6.872;2023-08-17T06:23:40;17.40;99.90
37530;DHT22;23374;52.758;6.872;2023-08-17T06:26:00;17.50;99.90
37530;DHT22;23374;52.758;6.872;2023-08-17T06:28:20;17.50;99.90
37530;DHT22;23374;52.758;6.872;2023-08-17T06:30:41;17.60;99.90
37530;DHT22;23374;52.758;6.872;2023-08-17T06:33:01;17.60;99.90
37530;DHT22;23374;52.758;6.872;2023-08-17T06:35:22;17.60;99.90
37530;DHT22;23374;52.758;6.872;2023-08-17T06:37:42;17.70;81.50
37530;DHT22;23374;52.758;6.872;2023-08-17T06:40:04;17.70;99.90
37530;DHT22;23374;52.758;6.872;2023-08-17T06:42:29;17.80;99.90
37530;DHT22;23374;52.758;6.872;2023-08-17T06:44:49;17.70;99.90
37530;DHT22;23374;52.758;6.872;2023-08-17T06:47:10;17.70;53.20
37530;DHT22;23374;52.758;6.872;2023-08-17T06:49:31;17.70;53.40
37530;DHT22;23374;52.758;6.872;2023-08-17T06:51:51;17.80;1.00
37530;DHT22;23374;52.758;6.872;2023-08-17T06:54:11;17.80;1.00
37530;DHT22;23374;52.758;6.872;2023-08-17T06:56:31;17.80;1.00
37530;DHT22;23374;52.758;6.872;2023-08-17T06:58:51;17.80;99.90
37530;DHT22;23374;52.758;6.872;2023-08-17T07:01:11;17.80;1.00
37530;DHT22;23374;52.758;6.872;2023-08-17T07:03:31;17.80;1.00
37530;DHT22;23374;52.758;6.872;2023-08-17T07:05:52;17.90;1.00
37530;DHT22;23374;52.758;6.872;2023-08-17T07:08:12;17.90;1.00
37530;DHT22;23374;52.758;6.872;2023-08-17T07:10:33;17.90;1.00
37530;DHT22;23374;52.758;6.872;2023-08-17T07:12:53;17.90;1.00
37530;DHT22;23374;52.758;6.872;2023-08-17T07:15:13;18.00;99.90
37530;DHT22;23374;52.758;6.872;2023-08-17T07:17:35;17.90;99.90
37530;DHT22;23374;52.758;6.872;2023-08-17T07:19:56;17.90;1.00
37530;DHT22;23374;52.758;6.872;2023-08-17T07:22:17;18.00;1.00
37530;DHT22;23374;52.758;6.872;2023-08-17T07:24:37;18.00;1.00
37530;DHT22;23374;52.758;6.872;2023-08-17T07:26:58;18.00;1.00
37530;DHT22;23374;52.758;6.872;2023-08-17T07:29:19;18.00;1.00
37530;DHT22;23374;52.758;6.872;2023-08-17T07:31:39;18.00;1.00
37530;DHT22;23374;52.758;6.872;2023-08-17T07:34:00;18.00;99.90
37530;DHT22;23374;52.758;6.872;2023-08-17T07:36:20;18.00;99.90
37530;DHT22;23374;52.758;6.872;2023-08-17T07:38:41;18.00;99.90
37530;DHT22;23374;52.758;6.872;2023-08-17T07:41:01;18.00;99.90
37530;DHT22;23374;52.758;6.872;2023-08-17T07:43:21;18.10;99.90
37530;DHT22;23374;52.758;6.872;2023-08-17T07:45:42;18.10;99.90
37530;DHT22;23374;52.758;6.872;2023-08-17T07:48:02;18.20;99.90
37530;DHT22;23374;52.758;6.872;2023-08-17T07:50:22;18.20;99.90
37530;DHT22;23374;52.758;6.872;2023-08-17T07:52:42;18.20;99.90
37530;DHT22;23374;52.758;6.872;2023-08-17T07:55:04;18.20;99.90
37530;DHT22;23374;52.758;6.872;2023-08-17T07:57:25;18.20;99.90
37530;DHT22;23374;52.758;6.872;2023-08-17T07:59:45;18.30;99.90
37530;DHT22;23374;52.758;6.872;2023-08-17T08:02:06;18.30;99.90
37530;DHT22;23374;52.758;6.872;2023-08-17T08:04:26;18.30;99.90
37530;DHT22;23374;52.758;6.872;2023-08-17T08:06:47;18.30;99.90
37530;DHT22;23374;52.758;6.872;2023-08-17T08:09:07;18.30;99.90
37530;DHT22;23374;52.758;6.872;2023-08-17T08:11:28;18.20;99.90
37530;DHT22;23374;52.758;6.872;2023-08-17T08:13:50;18.30;99.90
37530;DHT22;23374;52.758;6.872;2023-08-17T08:16:11;18.30;99.90
37530;DHT22;23374;52.758;6.872;2023-08-17T08:18:31;18.30;99.90
37530;DHT22;23374;52.758;6.872;2023-08-17T08:20:51;18.40;99.90
37530;DHT22;23374;52.758;6.872;2023-08-17T08:23:12;18.40;99.90
37530;DHT22;23374;52.758;6.872;2023-08-17T08:25:32;18.50;99.90
37530;DHT22;23374;52.758;6.872;2023-08-17T08:27:52;18.50;99.90
37530;DHT22;23374;52.758;6.872;2023-08-17T08:30:12;18.50;99.90
37530;DHT22;23374;52.758;6.872;2023-08-17T08:32:33;18.60;99.90
37530;DHT22;23374;52.758;6.872;2023-08-17T08:34:53;18.60;99.90
37530;DHT22;23374;52.758;6.872;2023-08-17T08:37:13;18.60;99.90
37530;DHT22;23374;52.758;6.872;2023-08-17T08:39:51;18.70;99.90
37530;DHT22;23374;52.758;6.872;2023-08-17T08:42:12;18.70;99.90
37530;DHT22;23374;52.758;6.872;2023-08-17T08:44:32;18.70;99.90
37530;DHT22;23374;52.758;6.872;2023-08-17T08:46:54;18.80;99.90
37530;DHT22;23374;52.758;6.872;2023-08-17T08:49:20;18.90;99.90
37530;DHT22;23374;52.758;6.872;2023-08-17T08:51:48;18.90;99.90
37530;DHT22;23374;52.758;6.872;2023-08-17T08:54:12;18.90;99.90
37530;DHT22;23374;52.758;6.872;2023-08-17T08:56:35;18.90;99.90
37530;DHT22;23374;52.758;6.872;2023-08-17T08:59:01;19.00;99.90
37530;DHT22;23374;52.758;6.872;2023-08-17T09:01:21;19.00;99.90
37530;DHT22;23374;52.758;6.872;2023-08-17T09:03:42;19.10;99.90
37530;DHT22;23374;52.758;6.872;2023-08-17T09:06:04;19.10;99.90
37530;DHT22;23374;52.758;6.872;2023-08-17T09:08:30;19.10;1.00
37530;DHT22;23374;52.758;6.872;2023-08-17T09:10:51;19.20;1.00
37530;DHT22;23374;52.758;6.872;2023-08-17T09:13:11;19.30;1.00
37530;DHT22;23374;52.758;6.872;2023-08-17T09:15:31;19.30;1.00
37530;DHT22;23374;52.758;6.872;2023-08-17T09:17:52;19.30;1.00
37530;DHT22;23374;52.758;6.872;2023-08-17T09:20:12;19.30;1.00
37530;DHT22;23374;52.758;6.872;2023-08-17T09:22:54;19.30;1.00
37530;DHT22;23374;52.758;6.872;2023-08-17T09:25:23;19.30;1.00
37530;DHT22;23374;52.758;6.872;2023-08-17T09:27:43;19.30;1.00
37530;DHT22;23374;52.758;6.872;2023-08-17T09:30:10;19.20;1.00
37530;DHT22;23374;52.758;6.872;2023-08-17T09:32:32;19.20;1.00
37530;DHT22;23374;52.758;6.872;2023-08-17T09:34:53;19.20;1.00
37530;DHT22;23374;52.758;6.872;2023-08-17T09:37:13;19.20;1.00
37530;DHT22;23374;52.758;6.872;2023-08-17T09:39:33;19.30;1.00
37530;DHT22;23374;52.758;6.872;2023-08-17T09:41:55;19.30;1.00
37530;DHT22;23374;52.758;6.872;2023-08-17T09:44:15;19.30;1.00
37530;DHT22;23374;52.758;6.872;2023-08-17T09:46:36;19.30;1.00
37530;DHT22;23374;52.758;6.872;2023-08-17T09:48:57;19.30;87.70
37530;DHT22;23374;52.758;6.872;2023-08-17T09:51:17;19.30;1.00
37530;DHT22;23374;52.758;6.872;2023-08-17T09:53:38;19.30;1.00
37530;DHT22;23374;52.758;6.872;2023-08-17T09:55:59;19.30;1.00
37530;DHT22;23374;52.758;6.872;2023-08-17T09:58:20;19.30;1.00
37530;DHT22;23374;52.758;6.872;2023-08-17T10:00:47;19.40;1.00
37530;DHT22;23374;52.758;6.872;2023-08-17T10:03:09;19.40;1.00
37530;DHT22;23374;52.758;6.872;2023-08-17T10:05:35;19.50;1.00
37530;DHT22;23374;52.758;6.872;2023-08-17T10:08:02;19.60;1.00
37530;DHT22;23374;52.758;6.872;2023-08-17T10:10:28;19.60;1.00
37530;DHT22;23374;52.758;6.872;2023-08-17T10:13:08;19.60;1.00
37530;DHT22;23374;52.758;6.872;2023-08-17T10:15:30;19.60;1.00
37530;DHT22;23374;52.758;6.872;2023-08-17T10:18:07;19.60;1.00
37530;DHT22;23374;52.758;6.872;2023-08-17T10:20:30;19.60;1.00
37530;DHT22;23374;52.758;6.872;2023-08-17T10:23:10;19.60;1.00
37530;DHT22;23374;52.758;6.872;2023-08-17T10:25:33;19.60;1.00
37530;DHT22;23374;52.758;6.872;2023-08-17T10:27:54;19.70;1.00
37530;DHT22;23374;52.758;6.872;2023-08-17T10:30:15;19.70;1.00
37530;DHT22;23374;52.758;6.872;2023-08-17T10:32:36;19.80;1.00
37530;DHT22;23374;52.758;6.872;2023-08-17T10:34:57;19.80;1.00
37530;DHT22;23374;52.758;6.872;2023-08-17T10:37:20;19.80;1.00
37530;DHT22;23374;52.758;6.872;2023-08-17T10:39:49;19.80;1.00
37530;DHT22;23374;52.758;6.872;2023-08-17T10:42:09;19.80;1.00
37530;DHT22;23374;52.758;6.872;2023-08-17T10:44:51;19.90;1.00
37530;DHT22;23374;52.758;6.872;2023-08-17T10:47:29;19.90;1.00
37530;DHT22;23374;52.758;6.872;2023-08-17T10:50:20;19.80;1.00
37530;DHT22;23374;52.758;6.872;2023-08-17T10:52:44;19.80;1.00
37530;DHT22;23374;52.758;6.872;2023-08-17T10:55:09;19.80;1.00
37530;DHT22;23374;52.758;6.872;2023-08-17T10:57:43;19.80;1.00
37530;DHT22;23374;52.758;6.872;2023-08-17T11:00:23;19.80;1.00
37530;DHT22;23374;52.758;6.872;2023-08-17T11:03:20;19.80;1.00
37530;DHT22;23374;52.758;6.872;2023-08-17T11:05:50;19.90;1.00
37530;DHT22;23374;52.758;6.872;2023-08-17T11:08:55;19.90;1.00
37530;DHT22;23374;52.758;6.872;2023-08-17T11:11:16;19.90;1.00
37530;DHT22;23374;52.758;6.872;2023-08-17T11:13:42;19.90;1.00
37530;DHT22;23374;52.758;6.872;2023-08-17T11:16:03;19.90;1.00
37530;DHT22;23374;52.758;6.872;2023-08-17T11:18:24;20.00;1.00
37530;DHT22;23374;52.758;6.872;2023-08-17T11:20:44;20.00;1.00
37530;DHT22;23374;52.758;6.872;2023-08-17T11:23:07;20.10;1.00
37530;DHT22;23374;52.758;6.872;2023-08-17T11:25:28;20.20;1.00
37530;DHT22;23374;52.758;6.872;2023-08-17T11:27:48;20.30;1.00
37530;DHT22;23374;52.758;6.872;2023-08-17T11:30:11;20.40;1.00
37530;DHT22;23374;52.758;6.872;2023-08-17T11:32:32;20.40;1.00
37530;DHT22;23374;52.758;6.872;2023-08-17T11:34:53;20.40;1.00
37530;DHT22;23374;52.758;6.872;2023-08-17T11:37:13;20.40;1.00
37530;DHT22;23374;52.758;6.872;2023-08-17T11:39:34;20.40;1.00
37530;DHT22;23374;52.758;6.872;2023-08-17T11:41:55;20.40;1.00
37530;DHT22;23374;52.758;6.872;2023-08-17T11:44:15;20.40;1.00
37530;DHT22;23374;52.758;6.872;2023-08-17T11:46:40;20.50;1.00
37530;DHT22;23374;52.758;6.872;2023-08-17T11:49:01;20.60;1.00
37530;DHT22;23374;52.758;6.872;2023-08-17T11:51:31;20.60;1.00
37530;DHT22;23374;52.758;6.872;2023-08-17T11:53:52;20.60;1.00
37530;DHT22;23374;52.758;6.872;2023-08-17T11:56:12;20.60;1.00
37530;DHT22;23374;52.758;6.872;2023-08-17T11:58:43;20.60;1.00
37530;DHT22;23374;52.758;6.872;2023-08-17T12:01:09;20.60;1.00
37530;DHT22;23374;52.758;6.872;2023-08-17T12:03:32;20.50;1.00
37530;DHT22;23374;52.758;6.872;2023-08-17T12:05:52;20.50;1.00
37530;DHT22;23374;52.758;6.872;2023-08-17T12:08:13;20.60;1.00
37530;DHT22;23374;52.758;6.872;2023-08-17T12:10:37;20.60;1.00
37530;DHT22;23374;52.758;6.872;2023-08-17T12:12:59;20.60;1.00
37530;DHT22;23374;52.758;6.872;2023-08-17T12:15:23;20.60;1.00
37530;DHT22;23374;52.758;6.872;2023-08-17T12:17:48;20.50;1.00
37530;DHT22;23374;52.758;6.872;2023-08-17T12:20:16;20.50;1.00
37530;DHT22;23374;52.758;6.872;2023-08-17T12:22:39;20.40;1.00
37530;DHT22;23374;52.758;6.872;2023-08-17T12:25:00;20.50;1.00
37530;DHT22;23374;52.758;6.872;2023-08-17T12:27:22;20.40;1.00
37530;DHT22;23374;52.758;6.872;2023-08-17T12:29:51;20.40;1.00
37530;DHT22;23374;52.758;6.872;2023-08-17T12:32:14;20.50;1.00
37530;DHT22;23374;52.758;6.872;2023-08-17T12:34:36;20.50;1.00
37530;DHT22;23374;52.758;6.872;2023-08-17T12:36:56;20.60;1.00
37530;DHT22;23374;52.758;6.872;2023-08-17T12:39:17;20.70;1.00
37530;DHT22;23374;52.758;6.872;2023-08-17T12:41:37;20.70;1.00
37530;DHT22;23374;52.758;6.872;2023-08-17T12:43:57;20.70;1.00
37530;DHT22;23374;52.758;6.872;2023-08-17T12:46:20;20.80;1.00
37530;DHT22;23374;52.758;6.872;2023-08-17T12:48:41;20.90;1.00
37530;DHT22;23374;52.758;6.872;2023-08-17T12:51:03;20.90;1.00
37530;DHT22;23374;52.758;6.872;2023-08-17T12:53:24;21.00;1.00
37530;DHT22;23374;52.758;6.872;2023-08-17T12:55:44;21.00;1.00
37530;DHT22;23374;52.758;6.872;2023-08-17T12:58:08;21.10;1.00
37530;DHT22;23374;52.758;6.872;2023-08-17T13:00:29;21.10;1.00
37530;DHT22;23374;52.758;6.872;2023-08-17T13:02:50;21.10;1.00
37530;DHT22;23374;52.758;6.872;2023-08-17T13:05:11;21.10;1.00
37530;DHT22;23374;52.758;6.872;2023-08-17T13:07:31;21.10;1.00
37530;DHT22;23374;52.758;6.872;2023-08-17T13:09:52;21.20;1.00
37530;DHT22;23374;52.758;6.872;2023-08-17T13:12:12;21.20;1.00
37530;DHT22;23374;52.758;6.872;2023-08-17T13:14:33;21.30;1.00
37530;DHT22;23374;52.758;6.872;2023-08-17T13:16:53;21.30;1.00
37530;DHT22;23374;52.758;6.872;2023-08-17T13:19:13;21.30;1.00
37530;DHT22;23374;52.758;6.872;2023-08-17T13:21:34;21.40;1.00
37530;DHT22;23374;52.758;6.872;2023-08-17T13:23:54;21.40;1.00
37530;DHT22;23374;52.758;6.872;2023-08-17T13:26:15;21.50;1.00
37530;DHT22;23374;52.758;6.872;2023-08-17T13:28:35;21.50;1.00
37530;DHT22;23374;52.758;6.872;2023-08-17T13:30:55;21.40;1.00
37530;DHT22;23374;52.758;6.872;2023-08-17T13:33:15;21.40;1.00
37530;DHT22;23374;52.758;6.872;2023-08-17T13:35:39;21.40;1.00
37530;DHT22;23374;52.758;6.872;2023-08-17T13:37:59;21.40;1.00
37530;DHT22;23374;52.758;6.872;2023-08-17T13:40:21;21.40;1.00
37530;DHT22;23374;52.758;6.872;2023-08-17T13:42:41;21.50;1.00
37530;DHT22;23374;52.758;6.872;2023-08-17T13:45:03;21.50;1.00
37530;DHT22;23374;52.758;6.872;2023-08-17T13:47:23;21.50;99.90
37530;DHT22;23374;52.758;6.872;2023-08-17T13:49:43;21.40;1.00
37530;DHT22;23374;52.758;6.872;2023-08-17T13:52:05;21.40;1.00
37530;DHT22;23374;52.758;6.872;2023-08-17T13:54:26;21.40;1.00
37530;DHT22;23374;52.758;6.872;2023-08-17T13:56:46;21.50;1.00
37530;DHT22;23374;52.758;6.872;2023-08-17T13:59:06;21.50;1.00
37530;DHT22;23374;52.758;6.872;2023-08-17T14:01:26;21.50;1.00
37530;DHT22;23374;52.758;6.872;2023-08-17T14:03:47;21.40;1.00
37530;DHT22;23374;52.758;6.872;2023-08-17T14:06:07;21.40;1.00
37530;DHT22;23374;52.758;6.872;2023-08-17T14:08:28;21.40;1.00
37530;DHT22;23374;52.758;6.872;2023-08-17T14:10:49;21.40;1.00
37530;DHT22;23374;52.758;6.872;2023-08-17T14:13:10;21.50;1.00
37530;DHT22;23374;52.758;6.872;2023-08-17T14:15:30;21.50;1.00
37530;DHT22;23374;52.758;6.872;2023-08-17T14:17:50;21.50;1.00
37530;DHT22;23374;52.758;6.872;2023-08-17T14:20:11;21.50;1.00
37530;DHT22;23374;52.758;6.872;2023-08-17T14:22:32;21.50;99.90
37530;DHT22;23374;52.758;6.872;2023-08-17T14:24:52;21.40;1.00
37530;DHT22;23374;52.758;6.872;2023-08-17T14:27:13;21.40;1.00
37530;DHT22;23374;52.758;6.872;2023-08-17T14:29:33;21.40;1.00
37530;DHT22;23374;52.758;6.872;2023-08-17T14:31:54;21.30;1.00
37530;DHT22;23374;52.758;6.872;2023-08-17T14:34:14;21.30;1.00
37530;DHT22;23374;52.758;6.872;2023-08-17T14:36:35;21.30;1.00
37530;DHT22;23374;52.758;6.872;2023-08-17T14:38:55;21.30;1.00
37530;DHT22;23374;52.758;6.872;2023-08-17T14:41:15;21.30;1.00
37530;DHT22;23374;52.758;6.872;2023-08-17T14:43:35;21.20;1.00
37530;DHT22;23374;52.758;6.872;2023-08-17T14:45:55;21.30;1.00
37530;DHT22;23374;52.758;6.872;2023-08-17T14:48:16;21.30;1.00
37530;DHT22;23374;52.758;6.872;2023-08-17T14:50:37;21.20;1.00
37530;DHT22;23374;52.758;6.872;2023-08-17T14:52:58;21.20;1.00
37530;DHT22;23374;52.758;6.872;2023-08-17T14:55:18;21.30;1.00
37530;DHT22;23374;52.758;6.872;2023-08-17T14:57:39;21.30;1.00
37530;DHT22;23374;52.758;6.872;2023-08-17T14:59:59;21.30;1.00
37530;DHT22;23374;52.758;6.872;2023-08-17T15:02:20;21.30;1.00
37530;DHT22;23374;52.758;6.872;2023-08-17T15:04:40;21.40;1.00
37530;DHT22;23374;52.758;6.872;2023-08-17T15:07:01;21.40;1.00
37530;DHT22;23374;52.758;6.872;2023-08-17T15:09:22;21.40;1.00